createdAt,value
2022-10-02T00:01:03.530Z,10.1
2022-10-02T00:06:11.281Z,10.1
2022-10-02T00:11:19.710Z,10.1
2022-10-02T00:16:27.975Z,10.1
2022-10-02T00:21:36.317Z,10.1
2022-10-02T00:26:44.634Z,10
2022-10-02T00:31:53.007Z,10.1
2022-10-02T00:37:01.288Z,10.1
2022-10-02T00:42:09.665Z,10.1
2022-10-02T00:47:18.007Z,10
2022-10-02T00:52:26.371Z,10
2022-10-02T00:57:34.723Z,10.1
2022-10-02T01:02:43.117Z,10
2022-10-02T01:07:51.485Z,10
2022-10-02T01:12:59.869Z,10
2022-10-02T01:18:09.221Z,10
2022-10-02T01:23:16.840Z,10
2022-10-02T01:28:24.415Z,9.9
2022-10-02T01:33:31.954Z,10.1
2022-10-02T01:38:39.486Z,10.1
2022-10-02T01:43:47.043Z,10.1
2022-10-02T01:48:54.570Z,10.2
2022-10-02T01:54:02.085Z,10.1
2022-10-02T01:59:09.617Z,10.1
2022-10-02T02:04:17.151Z,10.1
2022-10-02T02:09:24.679Z,10
2022-10-02T02:14:32.244Z,9.8
2022-10-02T02:19:39.768Z,9.7
2022-10-02T02:24:47.326Z,9.9
2022-10-02T02:29:54.880Z,9.7
2022-10-02T02:35:02.435Z,9.6
2022-10-02T02:40:09.999Z,9.3
2022-10-02T02:45:17.534Z,9.4
2022-10-02T02:50:25.074Z,9.6
2022-10-02T02:55:32.616Z,9.7
2022-10-02T03:00:40.167Z,9.7
2022-10-02T03:05:47.737Z,9.8
2022-10-02T03:10:55.281Z,9.8
2022-10-02T03:16:02.847Z,10
2022-10-02T03:21:10.399Z,10.1
2022-10-02T03:26:17.938Z,10.2
2022-10-02T03:31:25.743Z,10.1
2022-10-02T03:36:33.502Z,10
2022-10-02T03:41:41.299Z,9.8
2022-10-02T03:46:49.124Z,10
2022-10-02T03:51:56.906Z,10.1
2022-10-02T03:57:04.704Z,9.9
2022-10-02T04:02:12.467Z,9.7
2022-10-02T04:07:20.243Z,9.7
2022-10-02T04:12:27.991Z,9.7
2022-10-02T04:17:35.791Z,9.6
2022-10-02T04:22:43.580Z,9.6
2022-10-02T04:27:51.381Z,9.4
2022-10-02T04:32:59.221Z,9.3
2022-10-02T04:38:07.565Z,9.2
2022-10-02T04:43:15.942Z,9.3
2022-10-02T04:48:24.313Z,9.5
2022-10-02T04:53:32.631Z,9.4
2022-10-02T04:58:40.957Z,9.4
2022-10-02T05:03:49.306Z,9.4
2022-10-02T05:08:57.631Z,9.5
2022-10-02T05:14:06.097Z,9.4
2022-10-02T05:19:14.367Z,9.6
2022-10-02T05:24:22.732Z,9.7
2022-10-02T05:29:31.110Z,9.7
2022-10-02T05:34:39.472Z,9.8
2022-10-02T05:39:47.836Z,9.9
2022-10-02T05:44:57.205Z,10
2022-10-02T05:50:04.644Z,10
2022-10-02T05:55:12.034Z,10.1
2022-10-02T06:00:19.402Z,10.2
2022-10-02T06:05:26.744Z,10.6
2022-10-02T06:10:34.104Z,11
2022-10-02T06:15:41.461Z,11.1
2022-10-02T06:20:48.793Z,11.4
2022-10-02T06:25:56.141Z,11.2
2022-10-02T06:31:03.389Z,11.3
2022-10-02T06:36:10.700Z,11.2
2022-10-02T06:41:18.019Z,11.3
2022-10-02T06:46:25.303Z,11.3
2022-10-02T06:51:32.600Z,11.5
2022-10-02T06:56:39.887Z,11.5
2022-10-02T07:01:47.141Z,11.6
2022-10-02T07:06:54.512Z,11.8
2022-10-02T07:12:01.723Z,11.9
2022-10-02T07:17:08.935Z,12
2022-10-02T07:22:16.203Z,12.2
2022-10-02T07:27:23.551Z,12.3
2022-10-02T07:32:30.675Z,12.9
2022-10-02T07:37:37.887Z,13.2
2022-10-02T07:42:45.095Z,12.7
2022-10-02T07:47:52.277Z,12.6
2022-10-02T07:52:59.516Z,12.7
2022-10-02T07:58:06.827Z,12.7
2022-10-02T08:03:14.113Z,12.7
2022-10-02T08:08:21.560Z,12.8
2022-10-02T08:13:28.933Z,12.7
2022-10-02T08:18:36.304Z,12.8
2022-10-02T08:23:43.512Z,13.1
2022-10-02T08:28:50.896Z,12.7
2022-10-02T08:33:58.127Z,14.6
2022-10-02T08:39:05.382Z,14.9
2022-10-02T08:44:12.678Z,16.9
2022-10-02T08:49:19.889Z,18.6
2022-10-02T08:54:27.064Z,19.9
2022-10-02T08:59:34.337Z,18.2
2022-10-02T09:04:41.647Z,18.8
2022-10-02T09:09:49.051Z,19.2
2022-10-02T09:14:56.413Z,18
2022-10-02T09:20:03.768Z,18.7
2022-10-02T09:25:11.159Z,16
2022-10-02T09:30:18.440Z,16.6
2022-10-02T09:35:25.759Z,15.7
2022-10-02T09:40:33.127Z,15.8
2022-10-02T09:45:40.389Z,15.3
2022-10-02T09:50:47.800Z,14.6
2022-10-02T09:55:55.232Z,15
2022-10-02T10:01:02.559Z,15.9
2022-10-02T10:06:10.030Z,18.3
2022-10-02T10:11:18.038Z,19.1
2022-10-02T10:16:24.694Z,19.3
2022-10-02T10:21:31.661Z,20
2022-10-02T10:26:38.556Z,19.1
2022-10-02T10:31:45.455Z,18.6
2022-10-02T10:36:52.418Z,19.8
2022-10-02T10:41:59.358Z,19.8
2022-10-02T10:47:06.278Z,17.8
2022-10-02T10:52:13.189Z,18
2022-10-02T10:57:20.008Z,16.3
2022-10-02T11:02:26.891Z,15.7
2022-10-02T11:07:33.877Z,15.2
2022-10-02T11:12:40.811Z,14.6
2022-10-02T11:17:47.926Z,18.5
2022-10-02T11:22:54.935Z,20
2022-10-02T11:28:01.851Z,19.8
2022-10-02T11:33:08.857Z,20.9
2022-10-02T11:38:15.757Z,21.4
2022-10-02T11:43:22.681Z,21.7
2022-10-02T11:48:29.505Z,20.2
2022-10-02T11:53:36.370Z,17.9
2022-10-02T11:58:43.125Z,18.7
2022-10-02T12:03:49.974Z,16.9
2022-10-02T12:08:56.840Z,16.3
2022-10-02T12:14:03.759Z,16
2022-10-02T12:19:10.656Z,16
2022-10-02T12:24:17.685Z,20.5
2022-10-02T12:29:24.743Z,20.9
2022-10-02T12:34:31.774Z,20.4
2022-10-02T12:39:38.836Z,17.4
2022-10-02T12:44:45.807Z,17.2
2022-10-02T12:49:52.816Z,16.9
2022-10-02T12:54:59.848Z,15.8
2022-10-02T13:00:06.962Z,15.4
2022-10-02T13:05:14.161Z,15.6
2022-10-02T13:10:21.216Z,15.4
2022-10-02T13:15:28.378Z,14.9
2022-10-02T13:20:35.546Z,15.7
2022-10-02T13:25:42.712Z,16.6
2022-10-02T13:30:50.022Z,18.5
2022-10-02T13:35:57.343Z,16
2022-10-02T13:41:04.703Z,15.2
2022-10-02T13:46:12.003Z,14.9
2022-10-02T13:51:19.435Z,14.6
2022-10-02T13:56:26.826Z,13.7
2022-10-02T14:01:34.320Z,15.5
2022-10-02T14:06:41.671Z,16.8
2022-10-02T14:11:49.094Z,14
2022-10-02T14:16:56.511Z,14.2
2022-10-02T14:22:03.948Z,13.8
2022-10-02T14:27:11.410Z,13.7
2022-10-02T14:32:18.923Z,13.8
2022-10-02T14:37:27.040Z,14.3
2022-10-02T14:42:33.720Z,15.3
2022-10-02T14:47:40.831Z,19.4
2022-10-02T14:52:47.803Z,19.6
2022-10-02T14:57:54.736Z,18.6
2022-10-02T15:03:01.626Z,18.1
2022-10-02T15:08:08.485Z,15.1
2022-10-02T15:13:15.390Z,14.9
2022-10-02T15:18:22.238Z,14.5
2022-10-02T15:23:29.159Z,15.2
2022-10-02T15:28:36.150Z,16
2022-10-02T15:33:43.065Z,16.7
2022-10-02T15:38:50.044Z,17
2022-10-02T15:43:56.973Z,17.2
2022-10-02T15:49:03.764Z,16.2
2022-10-02T15:54:10.679Z,14.7
2022-10-02T15:59:17.648Z,14.4
2022-10-02T16:04:24.601Z,14.1
2022-10-02T16:09:31.701Z,14
2022-10-02T16:14:38.673Z,13.9
2022-10-02T16:19:45.753Z,13.9
2022-10-02T16:24:52.857Z,12.4
2022-10-02T16:30:00.061Z,11.8
2022-10-02T16:35:07.204Z,11.6
2022-10-02T16:40:14.448Z,11.2
2022-10-02T16:45:21.678Z,11.2
2022-10-02T16:50:29.079Z,11.1
2022-10-02T16:55:36.484Z,11.2
2022-10-02T17:00:43.929Z,11.2
2022-10-02T17:05:51.489Z,11.2
2022-10-02T17:10:58.938Z,11.1
2022-10-02T17:16:06.383Z,11
2022-10-02T17:21:13.757Z,11
2022-10-02T17:26:21.212Z,10.9
2022-10-02T17:31:28.689Z,11.3
2022-10-02T17:36:36.292Z,10.9
2022-10-02T17:41:43.699Z,10.5
2022-10-02T17:46:51.293Z,10.5
2022-10-02T17:51:58.870Z,10.2
2022-10-02T17:57:06.627Z,10.2
2022-10-02T18:02:14.377Z,10.1
2022-10-02T18:07:22.149Z,9.9
2022-10-02T18:12:29.954Z,9.5
2022-10-02T18:17:37.732Z,9
2022-10-02T18:22:45.566Z,9.8
2022-10-02T18:27:53.448Z,10.2
2022-10-02T18:33:01.379Z,10.2
2022-10-02T18:38:09.229Z,10.3
2022-10-02T18:43:17.023Z,10.5
2022-10-02T18:48:24.803Z,10.5
2022-10-02T18:53:32.523Z,10.5
2022-10-02T18:58:40.424Z,11.2
2022-10-02T19:03:48.740Z,11
2022-10-02T19:08:55.618Z,11.1
2022-10-02T19:14:02.895Z,11.1
2022-10-02T19:19:10.195Z,11.1
2022-10-02T19:24:17.484Z,10.9
2022-10-02T19:29:24.776Z,11.1
2022-10-02T19:34:32.069Z,11.2
2022-10-02T19:39:39.362Z,11.1
2022-10-02T19:44:46.659Z,11.3
2022-10-02T19:49:53.937Z,11.6
2022-10-02T19:55:01.207Z,11.5
2022-10-02T20:00:08.444Z,11.3
2022-10-02T20:05:15.657Z,11.3
2022-10-02T20:10:22.993Z,11.1
2022-10-02T20:15:30.241Z,11.1
2022-10-02T20:20:37.568Z,11
2022-10-02T20:25:44.839Z,11
2022-10-02T20:30:52.095Z,10.9
2022-10-02T20:35:59.376Z,11
2022-10-02T20:41:06.656Z,10.9
2022-10-02T20:46:14.006Z,10.7
2022-10-02T20:51:21.480Z,10.6
2022-10-02T20:56:28.820Z,10.6
2022-10-02T21:01:36.049Z,10.6
2022-10-02T21:06:43.376Z,10.7
2022-10-02T21:11:50.872Z,10.7
2022-10-02T21:16:58.234Z,10.7
2022-10-02T21:22:05.692Z,10.6
2022-10-02T21:27:12.964Z,10.1
2022-10-02T21:32:20.553Z,10.3
2022-10-02T21:37:27.910Z,10.3
2022-10-02T21:42:35.370Z,10.3
2022-10-02T21:47:42.769Z,10.2
2022-10-02T21:52:50.162Z,10.3
2022-10-02T21:57:57.529Z,10
2022-10-02T22:03:04.978Z,10.2
2022-10-02T22:08:12.389Z,10.2
2022-10-02T22:13:19.677Z,10.1
2022-10-02T22:18:27.059Z,10
2022-10-02T22:23:34.804Z,10.1
2022-10-02T22:28:42.158Z,10
2022-10-02T22:33:49.886Z,10
2022-10-02T22:38:57.393Z,10
2022-10-02T22:44:04.929Z,10
2022-10-02T22:49:12.492Z,10
2022-10-02T22:54:19.955Z,10.1
2022-10-02T22:59:27.593Z,10.1
2022-10-02T23:04:35.155Z,9.9
2022-10-02T23:09:42.766Z,9.8
2022-10-02T23:14:50.205Z,9.7
2022-10-02T23:19:57.775Z,9.6
2022-10-02T23:25:05.537Z,9.9
2022-10-02T23:30:13.259Z,10.1
2022-10-02T23:35:21.165Z,10
2022-10-02T23:40:28.957Z,10.1
2022-10-02T23:45:36.744Z,10.1
2022-10-02T23:50:44.553Z,10.2
2022-10-02T23:55:52.362Z,10.3
